createdAt,value
2022-12-19T00:01:38.861Z,84.46
2022-12-19T00:04:11.445Z,85.68
2022-12-19T00:06:43.872Z,85.35
2022-12-19T00:09:14.221Z,86.31
2022-12-19T00:11:43.200Z,85.40
2022-12-19T00:14:12.684Z,86.12
2022-12-19T00:16:41.353Z,85.13
2022-12-19T00:19:12.255Z,84.99
2022-12-19T00:21:40.847Z,85.07
2022-12-19T00:24:20.628Z,85.49
2022-12-19T00:26:51.033Z,85.23
2022-12-19T00:29:22.596Z,85.52
2022-12-19T00:31:53.398Z,85.63
2022-12-19T00:34:21.923Z,86.00
2022-12-19T00:36:50.650Z,85.33
2022-12-19T00:39:19.383Z,86.28
2022-12-19T00:41:48.139Z,86.50
2022-12-19T00:44:17.107Z,84.96
2022-12-19T00:46:51.514Z,86.60
2022-12-19T00:49:22.125Z,86.27
2022-12-19T00:51:50.809Z,85.81
2022-12-19T00:54:19.645Z,85.75
2022-12-19T00:56:49.094Z,86.38
2022-12-19T00:59:18.922Z,86.33
2022-12-19T01:01:58.276Z,86.33
2022-12-19T01:04:29.151Z,85.64
2022-12-19T01:07:02.290Z,86.77
2022-12-19T01:09:36.298Z,85.86
2022-12-19T01:12:25.118Z,86.48
2022-12-19T01:15:03.822Z,86.63
2022-12-19T01:17:43.980Z,86.56
2022-12-19T01:20:15.964Z,86.92
2022-12-19T01:22:45.749Z,86.70
2022-12-19T01:25:16.127Z,86.89
2022-12-19T01:27:44.703Z,86.41
2022-12-19T01:30:13.981Z,86.53
2022-12-19T01:32:44.148Z,86.33
2022-12-19T01:35:21.327Z,86.72
2022-12-19T01:37:58.763Z,86.55
2022-12-19T01:40:37.838Z,86.17
2022-12-19T01:43:07.289Z,86.67
2022-12-19T01:45:43.861Z,86.73
2022-12-19T01:48:44.062Z,87.23
2022-12-19T01:51:20.759Z,86.53
2022-12-19T01:53:58.548Z,86.21
2022-12-19T01:56:37.892Z,87.24
2022-12-19T01:59:11.599Z,86.80
2022-12-19T02:01:51.885Z,87.50
2022-12-19T02:04:29.482Z,87.30
2022-12-19T02:07:15.609Z,87.31
2022-12-19T02:09:52.469Z,87.06
2022-12-19T02:12:38.851Z,87.23
2022-12-19T02:15:11.108Z,87.54
2022-12-19T02:17:51.345Z,87.99
2022-12-19T02:20:46.783Z,87.80
2022-12-19T02:23:18.157Z,86.94
2022-12-19T02:26:20.764Z,88.14
2022-12-19T02:29:02.618Z,87.04
2022-12-19T02:31:37.627Z,87.71
2022-12-19T02:34:24.452Z,87.49
2022-12-19T02:37:12.125Z,88.35
2022-12-19T02:39:49.921Z,88.33
2022-12-19T02:42:27.720Z,88.31
2022-12-19T02:45:04.219Z,89.41
2022-12-19T02:47:35.335Z,88.77
2022-12-19T02:50:06.507Z,88.98
2022-12-19T02:52:35.612Z,89.17
2022-12-19T02:55:10.709Z,88.71
2022-12-19T02:58:10.703Z,88.99
2022-12-19T03:01:11.412Z,88.91
2022-12-19T03:04:19.633Z,89.62
2022-12-19T03:07:06.552Z,88.86
2022-12-19T03:09:57.061Z,89.77
2022-12-19T03:12:31.701Z,88.77
2022-12-19T03:15:02.285Z,89.60
2022-12-19T03:17:37.315Z,90.33
2022-12-19T03:20:12.124Z,89.56
2022-12-19T03:22:40.734Z,90.40
2022-12-19T03:25:10.383Z,90.71
2022-12-19T03:27:40.962Z,90.34
2022-12-19T03:30:13.448Z,89.71
2022-12-19T03:32:45.393Z,89.49
2022-12-19T03:35:23.493Z,90.42
2022-12-19T03:37:59.872Z,90.26
2022-12-19T03:40:33.993Z,90.31
2022-12-19T03:43:11.257Z,90.50
2022-12-19T03:46:11.178Z,90.61
2022-12-19T03:48:50.172Z,90.63
2022-12-19T03:51:28.412Z,89.95
2022-12-19T03:54:08.731Z,89.95
2022-12-19T03:56:58.621Z,90.50
2022-12-19T04:00:08.300Z,90.49
2022-12-19T04:02:50.747Z,90.22
2022-12-19T04:05:26.170Z,90.02
2022-12-19T04:08:02.151Z,89.86
2022-12-19T04:10:31.340Z,90.83
2022-12-19T04:13:24.407Z,90.11
2022-12-19T04:16:04.871Z,90.48
2022-12-19T04:18:35.764Z,90.38
2022-12-19T04:21:30.807Z,90.31
2022-12-19T04:24:06.975Z,90.16
2022-12-19T04:26:37.530Z,90.34
2022-12-19T04:29:08.747Z,90.11
2022-12-19T04:31:38.627Z,90.40
2022-12-19T04:34:07.499Z,90.46
2022-12-19T04:36:36.285Z,90.00
2022-12-19T04:39:05.269Z,90.45
2022-12-19T04:41:34.231Z,90.60
2022-12-19T04:44:02.797Z,90.71
2022-12-19T04:46:31.711Z,90.47
2022-12-19T04:49:00.476Z,90.45
2022-12-19T04:51:29.248Z,90.84
2022-12-19T04:53:58.315Z,90.88
2022-12-19T04:56:26.891Z,91.05
2022-12-19T04:59:00.295Z,90.53
2022-12-19T05:01:29.072Z,90.50
2022-12-19T05:04:04.098Z,90.29
2022-12-19T05:06:33.573Z,90.54
2022-12-19T05:09:02.515Z,90.71
2022-12-19T05:11:31.175Z,90.82
2022-12-19T05:14:00.654Z,90.59
2022-12-19T05:16:29.648Z,91.42
2022-12-19T05:18:58.466Z,91.07
2022-12-19T05:21:27.256Z,91.27
2022-12-19T05:23:56.055Z,91.23
2022-12-19T05:26:25.056Z,91.95
2022-12-19T05:28:54.063Z,91.57
2022-12-19T05:31:23.110Z,91.37
2022-12-19T05:33:52.459Z,91.69
2022-12-19T05:36:21.182Z,91.80
2022-12-19T05:38:52.164Z,92.02
2022-12-19T05:41:21.845Z,91.96
2022-12-19T05:43:52.742Z,92.12
2022-12-19T05:46:22.465Z,92.23
2022-12-19T05:48:51.549Z,92.40
2022-12-19T05:51:21.532Z,92.21
2022-12-19T05:53:50.374Z,92.52
2022-12-19T05:56:21.277Z,92.44
2022-12-19T05:58:50.885Z,92.55
2022-12-19T06:01:22.779Z,92.16
2022-12-19T06:03:52.541Z,92.89
2022-12-19T06:06:26.220Z,92.13
2022-12-19T06:09:00.263Z,92.92
2022-12-19T06:11:29.136Z,92.49
2022-12-19T06:13:58.128Z,92.08
2022-12-19T06:16:26.968Z,92.49
2022-12-19T06:18:55.851Z,92.64
2022-12-19T06:21:25.368Z,92.37
2022-12-19T06:23:55.549Z,92.33
2022-12-19T06:26:24.546Z,92.44
2022-12-19T06:28:54.142Z,92.24
2022-12-19T06:31:25.660Z,92.65
2022-12-19T06:33:56.034Z,91.78
2022-12-19T06:36:30.159Z,92.14
2022-12-19T06:38:59.213Z,92.04
2022-12-19T06:41:47.077Z,91.99
2022-12-19T06:44:18.004Z,91.91
2022-12-19T06:46:49.633Z,92.16
2022-12-19T06:49:18.369Z,91.64
2022-12-19T06:51:47.781Z,92.07
2022-12-19T06:54:16.760Z,91.91
2022-12-19T06:56:45.658Z,91.86
2022-12-19T06:59:16.652Z,92.47
2022-12-19T07:02:13.011Z,92.07
2022-12-19T07:04:47.260Z,92.23
2022-12-19T07:07:15.969Z,92.34
2022-12-19T07:09:44.893Z,92.62
2022-12-19T07:12:15.759Z,92.32
2022-12-19T07:14:53.016Z,92.19
2022-12-19T07:17:25.083Z,92.08
2022-12-19T07:19:59.221Z,92.09
2022-12-19T07:22:34.177Z,92.40
2022-12-19T07:25:04.936Z,91.89
2022-12-19T07:27:36.069Z,91.67
2022-12-19T07:30:06.769Z,91.75
2022-12-19T07:32:36.403Z,91.79
2022-12-19T07:35:05.520Z,91.23
2022-12-19T07:37:34.094Z,90.88
2022-12-19T07:40:02.812Z,91.52
2022-12-19T07:42:32.871Z,90.62
2022-12-19T07:45:02.090Z,90.27
2022-12-19T07:47:30.817Z,90.77
2022-12-19T07:49:59.758Z,90.27
2022-12-19T07:52:28.798Z,90.35
2022-12-19T07:54:57.272Z,90.37
2022-12-19T07:57:25.975Z,90.47
2022-12-19T07:59:54.826Z,90.39
2022-12-19T08:02:23.733Z,90.35
2022-12-19T08:04:53.693Z,89.78
2022-12-19T08:07:22.470Z,90.00
2022-12-19T08:09:51.109Z,89.75
2022-12-19T08:12:19.875Z,89.21
2022-12-19T08:14:52.794Z,89.12
2022-12-19T08:17:24.625Z,88.79
2022-12-19T08:19:55.716Z,88.70
2022-12-19T08:22:24.313Z,88.47
2022-12-19T08:24:53.347Z,88.45
2022-12-19T08:27:22.133Z,87.75
2022-12-19T08:29:53.479Z,87.83
2022-12-19T08:32:22.542Z,87.85
2022-12-19T08:34:51.499Z,87.61
2022-12-19T08:37:20.089Z,87.66
2022-12-19T08:39:51.319Z,86.70
2022-12-19T08:42:20.213Z,87.01
2022-12-19T08:44:48.848Z,86.72
2022-12-19T08:47:17.885Z,86.83
2022-12-19T08:49:46.543Z,86.66
2022-12-19T08:52:17.725Z,86.30
2022-12-19T08:54:46.727Z,86.61
2022-12-19T08:57:16.152Z,86.12
2022-12-19T08:59:45.305Z,85.72
2022-12-19T09:02:17.018Z,85.43
2022-12-19T09:05:59.965Z,84.79
2022-12-19T09:07:37.864Z,84.87
2022-12-19T09:10:08.725Z,85.24
2022-12-19T09:12:40.622Z,84.64
2022-12-19T09:15:12.085Z,84.84
2022-12-19T09:17:41.109Z,84.92
2022-12-19T09:20:19.647Z,84.49
2022-12-19T09:22:51.675Z,84.92
2022-12-19T09:25:20.480Z,84.46
2022-12-19T09:28:25.964Z,84.22
2022-12-19T09:30:38.127Z,84.66
2022-12-19T09:33:09.263Z,84.04
2022-12-19T09:35:38.463Z,84.10
2022-12-19T09:38:07.383Z,83.92
2022-12-19T09:40:58.287Z,82.42
2022-12-19T09:43:45.365Z,82.72
2022-12-19T09:46:21.578Z,82.19
2022-12-19T09:48:55.471Z,81.64
2022-12-19T09:51:36.555Z,81.04
2022-12-19T09:54:21.476Z,80.57
2022-12-19T09:56:54.845Z,80.36
2022-12-19T09:59:49.722Z,79.69
2022-12-19T10:02:40.950Z,79.86
2022-12-19T10:05:42.894Z,80.35
2022-12-19T10:08:19.317Z,79.79
2022-12-19T10:12:36.465Z,79.84
2022-12-19T10:13:59.359Z,79.13
2022-12-19T10:16:39.977Z,79.31
2022-12-19T10:19:16.217Z,79.74
2022-12-19T10:22:18.182Z,80.22
2022-12-19T10:25:00.535Z,80.32
2022-12-19T10:28:00.019Z,81.05
2022-12-19T10:30:34.255Z,81.22
2022-12-19T10:33:30.418Z,81.64
2022-12-19T10:36:03.073Z,81.49
2022-12-19T10:38:50.307Z,81.05
2022-12-19T10:41:27.899Z,80.35
2022-12-19T10:44:06.329Z,80.54
2022-12-19T10:46:51.519Z,79.14
2022-12-19T10:49:31.765Z,78.72
2022-12-19T10:52:05.540Z,79.84
2022-12-19T10:54:40.243Z,79.07
2022-12-19T10:57:23.998Z,78.83
2022-12-19T11:00:04.831Z,78.70
2022-12-19T11:02:54.326Z,78.55
2022-12-19T11:05:25.641Z,78.82
2022-12-19T11:08:32.258Z,78.41
2022-12-19T11:13:17.636Z,78.45
2022-12-19T11:19:23.208Z,78.62
2022-12-19T11:21:53.445Z,78.14
2022-12-19T11:29:17.678Z,78.64
2022-12-19T11:29:33.110Z,78.08
2022-12-19T11:29:36.581Z,77.67
2022-12-19T11:30:45.892Z,78.34
2022-12-19T11:34:25.125Z,78.52
2022-12-19T11:37:18.237Z,78.91
2022-12-19T11:39:57.568Z,78.27
2022-12-19T11:42:26.299Z,78.27
2022-12-19T11:45:08.492Z,78.90
2022-12-19T11:47:46.667Z,78.28
2022-12-19T11:50:23.782Z,78.78
2022-12-19T11:53:19.177Z,78.40
2022-12-19T11:55:56.928Z,77.97
2022-12-19T11:58:30.450Z,78.51
2022-12-19T12:01:42.562Z,78.36
2022-12-19T12:04:42.542Z,78.12
2022-12-19T12:07:52.064Z,78.23
2022-12-19T12:13:33.016Z,78.35
2022-12-19T12:21:57.678Z,78.41
2022-12-19T12:29:39.833Z,78.33
2022-12-19T12:31:10.129Z,78.06
2022-12-19T12:31:14.620Z,78.57
2022-12-19T12:31:49.898Z,78.23
2022-12-19T12:32:04.343Z,78.55
2022-12-19T12:35:46.392Z,78.01
2022-12-19T12:42:06.557Z,78.13
2022-12-19T12:44:46.114Z,78.81
2022-12-19T12:47:46.009Z,79.16
2022-12-19T12:50:19.120Z,78.29
2022-12-19T12:52:52.302Z,78.49
2022-12-19T12:55:36.284Z,78.76
2022-12-19T12:58:10.585Z,78.89
2022-12-19T13:01:10.282Z,79.79
2022-12-19T13:03:43.387Z,79.20
2022-12-19T13:06:34.367Z,79.31
2022-12-19T13:09:21.410Z,78.91
2022-12-19T13:12:50.661Z,78.68
2022-12-19T13:15:28.861Z,79.14
2022-12-19T13:17:58.115Z,79.04
2022-12-19T13:20:27.777Z,79.01
2022-12-19T13:22:59.606Z,79.81
2022-12-19T13:25:29.188Z,79.42
2022-12-19T13:28:22.799Z,79.31
2022-12-19T13:31:16.629Z,80.37
2022-12-19T13:33:55.959Z,79.73
2022-12-19T13:39:54.399Z,79.74
2022-12-19T13:40:12.373Z,80.12
2022-12-19T13:43:17.691Z,80.55
2022-12-19T13:45:54.005Z,80.49
2022-12-19T13:48:37.262Z,80.39
2022-12-19T13:51:12.147Z,80.57
2022-12-19T13:53:43.724Z,80.75
2022-12-19T13:56:18.742Z,80.41
2022-12-19T13:59:03.712Z,80.50
2022-12-19T14:01:38.354Z,80.89
2022-12-19T14:04:09.329Z,80.91
2022-12-19T14:06:46.661Z,80.54
2022-12-19T14:11:29.807Z,81.23
2022-12-19T14:13:43.659Z,80.74
2022-12-19T14:15:51.893Z,81.26
2022-12-19T14:18:44.720Z,80.97
2022-12-19T14:22:04.417Z,81.26
2022-12-19T14:24:25.900Z,81.68
2022-12-19T14:28:18.425Z,81.31
2022-12-19T14:30:30.510Z,81.46
2022-12-19T14:33:47.343Z,81.75
2022-12-19T14:36:06.919Z,82.74
2022-12-19T14:39:21.193Z,83.39
2022-12-19T14:41:49.359Z,83.43
2022-12-19T14:52:25.933Z,83.13
2022-12-19T14:52:34.499Z,83.76
2022-12-19T14:54:05.765Z,84.73
2022-12-19T14:54:37.410Z,84.28
2022-12-19T14:56:37.539Z,84.21
2022-12-19T15:02:03.245Z,83.74
2022-12-19T15:04:56.205Z,84.28
2022-12-19T15:07:31.696Z,84.44
2022-12-19T15:11:05.008Z,84.33
2022-12-19T15:14:55.374Z,84.05
2022-12-19T15:16:30.118Z,84.07
2022-12-19T15:19:01.251Z,83.89
2022-12-19T15:21:31.936Z,83.72
2022-12-19T15:24:00.584Z,84.53
2022-12-19T15:26:35.713Z,83.72
2022-12-19T15:29:15.450Z,84.08
2022-12-19T15:31:49.424Z,83.74
2022-12-19T15:34:35.399Z,83.86
2022-12-19T15:37:05.010Z,83.71
2022-12-19T15:39:34.019Z,83.32
2022-12-19T15:42:03.410Z,83.89
2022-12-19T15:44:40.993Z,83.76
2022-12-19T15:47:32.536Z,83.89
2022-12-19T15:50:08.542Z,83.65
2022-12-19T15:52:37.603Z,83.18
2022-12-19T15:55:07.170Z,83.62
2022-12-19T15:57:39.269Z,83.60
2022-12-19T16:00:19.355Z,83.23
2022-12-19T16:05:37.787Z,83.26
2022-12-19T16:08:21.003Z,83.20
2022-12-19T16:11:01.163Z,83.67
2022-12-19T16:13:35.500Z,83.12
2022-12-19T16:16:13.021Z,83.43
2022-12-19T16:18:46.097Z,83.39
2022-12-19T16:21:20.683Z,83.44
2022-12-19T16:23:51.073Z,83.61
2022-12-19T16:26:41.270Z,83.67
2022-12-19T16:29:29.272Z,83.56
2022-12-19T16:31:58.557Z,83.46
2022-12-19T16:34:28.065Z,83.70
2022-12-19T16:36:58.638Z,83.79
2022-12-19T16:39:27.947Z,83.67
2022-12-19T16:41:57.588Z,83.41
2022-12-19T16:44:26.333Z,83.58
2022-12-19T16:46:55.210Z,83.72
2022-12-19T16:49:24.331Z,83.04
2022-12-19T16:51:53.875Z,83.62
2022-12-19T16:54:23.444Z,82.93
2022-12-19T16:56:55.169Z,83.44
2022-12-19T16:59:28.344Z,83.39
2022-12-19T17:01:58.211Z,83.28
2022-12-19T17:04:28.461Z,83.34
2022-12-19T17:06:57.657Z,82.60
2022-12-19T17:09:26.940Z,82.37
2022-12-19T17:12:01.138Z,83.02
2022-12-19T17:14:35.614Z,82.10
2022-12-19T17:17:04.708Z,82.16
2022-12-19T17:19:42.571Z,82.29
2022-12-19T17:22:18.912Z,81.90
2022-12-19T17:24:49.544Z,81.26
2022-12-19T17:27:19.896Z,81.48
2022-12-19T17:29:52.210Z,80.88
2022-12-19T17:32:24.551Z,80.56
2022-12-19T17:34:54.371Z,80.77
2022-12-19T17:37:26.550Z,80.32
2022-12-19T17:39:55.788Z,80.19
2022-12-19T17:42:28.742Z,80.55
2022-12-19T17:45:00.159Z,80.84
2022-12-19T17:47:30.584Z,79.81
2022-12-19T17:50:00.284Z,80.35
2022-12-19T17:52:30.374Z,80.56
2022-12-19T17:54:58.993Z,80.09
2022-12-19T17:57:27.978Z,79.87
2022-12-19T17:59:56.799Z,80.30
2022-12-19T18:02:27.725Z,80.74
2022-12-19T18:04:59.222Z,80.24
2022-12-19T18:07:28.143Z,80.32
2022-12-19T18:09:57.485Z,80.23
2022-12-19T18:12:27.260Z,80.05
2022-12-19T18:14:56.036Z,80.23
2022-12-19T18:17:26.982Z,79.73
2022-12-19T18:19:56.354Z,80.42
2022-12-19T18:22:25.543Z,80.02
2022-12-19T18:24:54.961Z,80.32
2022-12-19T18:27:23.922Z,80.49
2022-12-19T18:29:52.763Z,80.50
2022-12-19T18:32:22.439Z,80.28
2022-12-19T18:34:54.586Z,80.12
2022-12-19T18:37:23.651Z,80.04
2022-12-19T18:39:56.301Z,79.95
2022-12-19T18:42:24.974Z,80.09
2022-12-19T18:44:53.736Z,80.76
2022-12-19T18:47:24.340Z,80.18
2022-12-19T18:49:53.493Z,80.08
2022-12-19T18:52:22.273Z,80.42
2022-12-19T18:54:51.077Z,80.61
2022-12-19T18:57:19.674Z,79.93
2022-12-19T18:59:49.325Z,80.40
2022-12-19T19:02:28.836Z,79.84
2022-12-19T19:04:57.724Z,80.03
2022-12-19T19:07:26.690Z,80.00
2022-12-19T19:09:55.807Z,80.04
2022-12-19T19:12:44.831Z,79.95
2022-12-19T19:15:13.486Z,79.51
2022-12-19T19:17:43.043Z,79.84
2022-12-19T19:20:12.337Z,79.76
2022-12-19T19:22:41.187Z,79.57
2022-12-19T19:25:10.507Z,79.46
2022-12-19T19:27:40.730Z,79.75
2022-12-19T19:30:11.884Z,79.31
2022-12-19T19:32:53.130Z,79.15
2022-12-19T19:35:22.671Z,78.58
2022-12-19T19:37:57.205Z,78.64
2022-12-19T19:40:25.884Z,78.71
2022-12-19T19:42:54.967Z,77.82
2022-12-19T19:45:24.304Z,78.22
2022-12-19T19:47:56.226Z,78.48
2022-12-19T19:50:25.518Z,78.16
2022-12-19T19:52:54.939Z,78.54
2022-12-19T19:55:24.725Z,78.61
2022-12-19T19:57:53.980Z,78.71
2022-12-19T20:00:23.603Z,78.76
2022-12-19T20:02:53.646Z,78.99
2022-12-19T20:05:22.720Z,79.07
2022-12-19T20:07:51.758Z,79.14
2022-12-19T20:10:20.851Z,79.08
2022-12-19T20:12:49.520Z,79.96
2022-12-19T20:15:18.661Z,80.64
2022-12-19T20:17:47.589Z,79.98
2022-12-19T20:20:16.660Z,80.53
2022-12-19T20:22:45.367Z,80.73
2022-12-19T20:25:14.193Z,80.82
2022-12-19T20:27:42.899Z,81.20
2022-12-19T20:30:12.669Z,81.33
2022-12-19T20:32:41.259Z,80.94
2022-12-19T20:35:14.548Z,81.28
2022-12-19T20:37:43.980Z,81.37
2022-12-19T20:40:13.661Z,81.24
2022-12-19T20:42:42.689Z,81.64
2022-12-19T20:45:11.429Z,80.90
2022-12-19T20:47:40.241Z,81.25
2022-12-19T20:50:09.535Z,81.17
2022-12-19T20:52:38.567Z,81.35
2022-12-19T20:55:10.628Z,81.14
2022-12-19T20:57:39.579Z,80.89
2022-12-19T21:00:09.576Z,80.68
2022-12-19T21:03:00.634Z,80.64
2022-12-19T21:05:27.885Z,80.07
2022-12-19T21:07:59.166Z,79.69
2022-12-19T21:10:27.802Z,79.75
2022-12-19T21:12:56.925Z,79.99
2022-12-19T21:15:26.025Z,80.17
2022-12-19T21:17:54.679Z,79.49
2022-12-19T21:20:23.443Z,79.68
2022-12-19T21:22:52.143Z,78.87
2022-12-19T21:25:21.227Z,78.74
2022-12-19T21:27:49.999Z,78.57
2022-12-19T21:30:19.691Z,77.85
2022-12-19T21:32:48.559Z,78.08
2022-12-19T21:35:17.217Z,79.00
2022-12-19T21:37:50.706Z,78.84
2022-12-19T21:40:21.030Z,78.52
2022-12-19T21:42:49.778Z,78.36
2022-12-19T21:45:18.862Z,78.22
2022-12-19T21:47:47.815Z,78.42
2022-12-19T21:50:16.871Z,78.78
2022-12-19T21:52:45.945Z,78.72
2022-12-19T21:55:14.560Z,78.48
2022-12-19T21:57:44.028Z,78.60
2022-12-19T22:00:14.503Z,78.73
2022-12-19T22:03:01.525Z,78.39
2022-12-19T22:05:32.220Z,77.28
2022-12-19T22:08:01.573Z,77.29
2022-12-19T22:10:31.356Z,77.65
2022-12-19T22:13:00.499Z,77.05
2022-12-19T22:15:29.260Z,77.54
2022-12-19T22:17:57.702Z,77.27
2022-12-19T22:20:26.420Z,77.53
2022-12-19T22:22:55.314Z,76.27
2022-12-19T22:25:24.071Z,76.36
2022-12-19T22:27:55.924Z,76.64
2022-12-19T22:30:24.457Z,76.54
2022-12-19T22:32:53.248Z,76.40
2022-12-19T22:35:21.714Z,76.78
2022-12-19T22:37:50.493Z,76.64
2022-12-19T22:40:19.824Z,76.47
2022-12-19T22:42:49.232Z,75.91
2022-12-19T22:45:18.670Z,75.94
2022-12-19T22:47:48.480Z,76.33
2022-12-19T22:50:17.109Z,76.69
2022-12-19T22:52:46.319Z,76.48
2022-12-19T22:55:15.020Z,76.68
2022-12-19T22:57:43.874Z,76.91
2022-12-19T23:00:15.395Z,76.47
2022-12-19T23:02:46.552Z,76.36
2022-12-19T23:05:15.536Z,76.56
2022-12-19T23:07:44.972Z,76.82
2022-12-19T23:10:13.938Z,76.48
2022-12-19T23:12:42.706Z,76.77
2022-12-19T23:15:11.821Z,77.25
2022-12-19T23:17:40.618Z,77.13
2022-12-19T23:20:09.958Z,77.46
2022-12-19T23:22:38.859Z,77.29
2022-12-19T23:25:08.322Z,78.05
2022-12-19T23:27:37.100Z,77.43
2022-12-19T23:30:12.272Z,77.61
2022-12-19T23:32:44.230Z,77.87
2022-12-19T23:35:18.486Z,78.23
2022-12-19T23:37:47.995Z,78.74
2022-12-19T23:40:16.968Z,78.55
2022-12-19T23:42:45.808Z,78.90
2022-12-19T23:45:14.627Z,79.75
2022-12-19T23:47:43.522Z,79.15
2022-12-19T23:50:12.951Z,79.83
2022-12-19T23:52:42.679Z,80.00
2022-12-19T23:55:12.239Z,80.35
2022-12-19T23:57:41.056Z,80.75
